createdAt,value
2018-03-02T00:01:24.574Z,52.17
2018-03-02T00:03:52.054Z,55.27
2018-03-02T00:06:20.314Z,55.33
2018-03-02T00:08:47.790Z,52.97
2018-03-02T00:11:15.283Z,58.90
2018-03-02T00:13:42.766Z,54.87
2018-03-02T00:16:10.262Z,56.70
2018-03-02T00:18:37.760Z,52.17
2018-03-02T00:21:05.261Z,53.57
2018-03-02T00:23:32.742Z,60.83
2018-03-02T00:26:01.328Z,61.80
2018-03-02T00:28:29.579Z,56.00
2018-03-02T00:30:57.071Z,62.90
2018-03-02T00:33:25.302Z,59.23
2018-03-02T00:35:52.809Z,55.43
2018-03-02T00:38:20.292Z,55.10
2018-03-02T00:40:47.789Z,59.10
2018-03-02T00:43:15.287Z,57.80
2018-03-02T00:45:42.780Z,53.33
2018-03-02T00:48:10.311Z,60.60
2018-03-02T00:50:37.778Z,63.10
2018-03-02T00:53:05.273Z,53.03
2018-03-02T00:55:32.786Z,56.33
2018-03-02T00:58:00.262Z,51.17
2018-03-02T01:00:27.749Z,62.47
2018-03-02T01:02:55.238Z,54.13
2018-03-02T01:05:23.488Z,59.30
2018-03-02T01:07:50.970Z,52.90
2018-03-02T01:10:19.209Z,54.75
2018-03-02T01:12:46.698Z,58.87
2018-03-02T01:15:14.948Z,54.63
2018-03-02T01:17:42.448Z,61.63
2018-03-02T01:20:09.950Z,53.13
2018-03-02T01:22:37.432Z,63.73
2018-03-02T01:25:04.930Z,55.33
2018-03-02T01:27:32.438Z,56.63
2018-03-02T01:29:59.956Z,55.43
2018-03-02T01:32:27.484Z,59.20
2018-03-02T01:34:55.736Z,58.93
2018-03-02T01:37:23.237Z,58.60
2018-03-02T01:39:50.720Z,61.33
2018-03-02T01:42:19.003Z,63.03
2018-03-02T01:44:46.533Z,62.05
2018-03-02T01:47:14.041Z,60.57
2018-03-02T01:49:41.525Z,63.57
2018-03-02T01:52:09.783Z,58.97
2018-03-02T01:54:37.266Z,58.40
2018-03-02T01:57:05.527Z,58.67
2018-03-02T01:59:33.014Z,58.07
2018-03-02T02:02:00.509Z,50.17
2018-03-02T02:04:27.993Z,58.40
2018-03-02T02:06:55.495Z,60.70
2018-03-02T02:09:23.023Z,61.47
2018-03-02T02:11:51.315Z,59.15
2018-03-02T02:14:18.804Z,62.53
2018-03-02T02:16:46.299Z,59.17
2018-03-02T02:19:13.803Z,57.13
2018-03-02T02:21:41.297Z,62.53
2018-03-02T02:24:08.815Z,61.03
2018-03-02T02:26:36.310Z,56.67
2018-03-02T02:29:03.815Z,59.97
2018-03-02T02:31:32.078Z,55.13
2018-03-02T02:34:00.344Z,63.35
2018-03-02T02:36:27.832Z,57.10
2018-03-02T02:38:56.099Z,59.92
2018-03-02T02:41:24.366Z,61.37
2018-03-02T02:43:52.642Z,63.73
2018-03-02T02:46:20.887Z,61.10
2018-03-02T02:48:48.391Z,57.63
2018-03-02T02:51:15.873Z,59.97
2018-03-02T02:53:43.379Z,63.97
2018-03-02T02:56:10.853Z,58.30
2018-03-02T02:58:39.128Z,59.63
2018-03-02T03:01:07.399Z,63.28
2018-03-02T03:03:35.689Z,70.57
2018-03-02T03:06:03.950Z,65.10
2018-03-02T03:08:31.464Z,61.50
2018-03-02T03:10:59.778Z,56.80
2018-03-02T03:13:27.286Z,65.30
2018-03-02T03:15:54.780Z,59.00
2018-03-02T03:18:22.285Z,65.57
2018-03-02T03:20:49.771Z,59.70
2018-03-02T03:23:17.251Z,58.30
2018-03-02T03:25:44.753Z,64.30
2018-03-02T03:28:13.018Z,57.73
2018-03-02T03:30:41.303Z,68.97
2018-03-02T03:33:09.561Z,60.33
2018-03-02T03:35:37.843Z,63.60
2018-03-02T03:38:06.104Z,61.57
2018-03-02T03:40:35.102Z,53.45
2018-03-02T03:43:02.677Z,63.43
2018-03-02T03:45:30.940Z,63.90
2018-03-02T03:47:59.201Z,63.63
2018-03-02T03:50:26.700Z,60.33
2018-03-02T03:52:54.948Z,63.63
2018-03-02T03:55:22.435Z,60.70
2018-03-02T03:57:49.927Z,58.60
2018-03-02T04:00:17.430Z,56.93
2018-03-02T04:02:45.695Z,51.97
2018-03-02T04:05:13.710Z,59.60
2018-03-02T04:07:41.205Z,64.33
2018-03-02T04:10:08.702Z,63.60
2018-03-02T04:12:36.962Z,62.20
2018-03-02T04:15:04.465Z,61.87
2018-03-02T04:17:31.949Z,57.80
2018-03-02T04:19:59.457Z,61.10
2018-03-02T04:22:26.940Z,57.43
2018-03-02T04:24:54.465Z,57.10
2018-03-02T04:27:22.722Z,57.57
2018-03-02T04:29:50.207Z,60.97
2018-03-02T04:32:18.475Z,54.20
2018-03-02T04:34:46.741Z,70.73
2018-03-02T04:37:15.006Z,61.17
2018-03-02T04:39:42.589Z,58.63
2018-03-02T04:42:10.845Z,58.87
2018-03-02T04:44:38.349Z,70.17
2018-03-02T04:47:05.851Z,63.07
2018-03-02T04:49:33.359Z,54.75
2018-03-02T04:52:00.862Z,59.00
2018-03-02T04:54:28.337Z,67.83
2018-03-02T04:56:55.830Z,71.23
2018-03-02T04:59:23.311Z,59.20
2018-03-02T05:01:50.809Z,64.87
2018-03-02T05:04:18.308Z,57.60
2018-03-02T05:06:45.816Z,57.40
2018-03-02T05:09:13.299Z,62.90
2018-03-02T05:11:41.556Z,60.40
2018-03-02T05:14:09.055Z,63.50
2018-03-02T05:16:36.571Z,66.93
2018-03-02T05:19:04.057Z,59.83
2018-03-02T05:21:31.604Z,60.60
2018-03-02T05:23:59.089Z,59.70
2018-03-02T05:26:27.352Z,66.73
2018-03-02T05:28:55.617Z,54.10
2018-03-02T05:31:23.890Z,53.80
2018-03-02T05:33:52.147Z,62.13
2018-03-02T05:36:20.423Z,56.45
2018-03-02T05:38:47.941Z,63.57
2018-03-02T05:41:15.442Z,66.97
2018-03-02T05:43:43.047Z,58.87
2018-03-02T05:46:10.584Z,61.57
2018-03-02T05:48:38.076Z,63.93
2018-03-02T05:51:09.499Z,58.47
2018-03-02T05:53:37.763Z,61.10
2018-03-02T05:56:06.030Z,67.93
2018-03-02T05:58:33.538Z,63.47
2018-03-02T06:01:01.034Z,70.43
2018-03-02T06:03:28.547Z,61.83
2018-03-02T06:05:56.037Z,62.90
2018-03-02T06:08:24.297Z,62.83
2018-03-02T06:10:51.777Z,66.20
2018-03-02T06:13:19.305Z,66.80
2018-03-02T06:15:46.793Z,64.27
2018-03-02T06:18:14.297Z,69.43
2018-03-02T06:20:42.537Z,56.30
2018-03-02T06:23:10.049Z,64.50
2018-03-02T06:25:37.550Z,63.17
2018-03-02T06:28:05.074Z,64.67
2018-03-02T06:30:32.554Z,63.93
2018-03-02T06:33:00.082Z,57.60
2018-03-02T06:35:27.569Z,67.37
2018-03-02T06:37:55.066Z,61.60
2018-03-02T06:40:23.369Z,61.60
2018-03-02T06:42:50.891Z,64.40
2018-03-02T06:45:18.392Z,66.37
2018-03-02T06:47:45.888Z,65.67
2018-03-02T06:50:13.384Z,67.90
2018-03-02T06:52:41.659Z,69.97
2018-03-02T06:55:09.921Z,71.27
2018-03-02T06:57:37.422Z,68.50
2018-03-02T07:00:04.909Z,59.73
2018-03-02T07:02:32.397Z,64.90
2018-03-02T07:05:00.648Z,63.90
2018-03-02T07:07:28.123Z,57.87
2018-03-02T07:09:55.609Z,69.37
2018-03-02T07:12:23.093Z,70.10
2018-03-02T07:14:50.591Z,64.80
2018-03-02T07:17:21.756Z,65.07
2018-03-02T07:19:49.246Z,64.33
2018-03-02T07:22:16.746Z,72.73
2018-03-02T07:24:44.243Z,64.83
2018-03-02T07:27:11.713Z,67.40
2018-03-02T07:29:39.208Z,70.50
2018-03-02T07:32:06.696Z,65.27
2018-03-02T07:34:34.979Z,63.13
2018-03-02T07:37:03.243Z,65.55
2018-03-02T07:39:31.527Z,63.10
2018-03-02T07:41:59.817Z,67.47
2018-03-02T07:44:28.062Z,71.13
2018-03-02T07:46:55.562Z,68.00
2018-03-02T07:49:23.060Z,68.80
2018-03-02T07:51:50.568Z,58.63
2018-03-02T07:54:18.807Z,66.10
2018-03-02T07:56:46.426Z,69.65
2018-03-02T07:59:13.911Z,69.73
2018-03-02T08:01:41.409Z,61.30
2018-03-02T08:04:09.674Z,65.07
2018-03-02T08:06:37.166Z,66.00
2018-03-02T08:09:06.146Z,63.20
2018-03-02T08:11:33.639Z,63.30
2018-03-02T08:14:01.125Z,63.80
2018-03-02T08:16:28.622Z,70.67
2018-03-02T08:18:56.118Z,69.03
2018-03-02T08:21:23.611Z,62.00
2018-03-02T08:23:51.105Z,61.27
2018-03-02T08:26:18.651Z,69.10
2018-03-02T08:28:46.150Z,67.60
2018-03-02T08:31:14.489Z,78.70
2018-03-02T08:33:41.989Z,54.97
2018-03-02T08:36:09.513Z,70.00
2018-03-02T08:38:37.000Z,66.17
2018-03-02T08:41:04.544Z,62.83
2018-03-02T08:43:32.766Z,68.57
2018-03-02T08:46:01.039Z,64.73
2018-03-02T08:48:28.536Z,59.25
2018-03-02T08:50:56.035Z,59.60
2018-03-02T08:53:24.310Z,61.40
2018-03-02T08:55:51.803Z,61.20
2018-03-02T08:58:19.308Z,57.90
2018-03-02T09:00:46.838Z,65.20
2018-03-02T09:03:15.100Z,75.15
2018-03-02T09:05:43.355Z,59.33
2018-03-02T09:08:11.670Z,56.87
2018-03-02T09:10:39.255Z,66.00
2018-03-02T09:13:08.207Z,76.43
2018-03-02T09:15:36.461Z,54.20
2018-03-02T09:18:03.966Z,58.77
2018-03-02T09:20:31.447Z,58.93
2018-03-02T09:22:58.944Z,58.00
2018-03-02T09:25:26.441Z,65.35
2018-03-02T09:27:53.949Z,64.97
2018-03-02T09:30:21.457Z,59.40
2018-03-02T09:32:48.951Z,60.20
2018-03-02T09:35:16.470Z,64.40
2018-03-02T09:37:44.004Z,64.87
2018-03-02T09:40:12.270Z,68.23
2018-03-02T09:42:39.819Z,66.50
2018-03-02T09:45:07.284Z,59.63
2018-03-02T09:47:34.765Z,68.03
2018-03-02T09:50:03.068Z,66.73
2018-03-02T09:52:30.565Z,69.53
2018-03-02T09:54:58.834Z,49.10
2018-03-02T09:57:26.348Z,59.20
2018-03-02T09:59:53.859Z,64.07
2018-03-02T10:02:21.369Z,68.10
2018-03-02T10:04:49.622Z,68.60
2018-03-02T10:07:17.879Z,72.17
2018-03-02T10:09:45.373Z,70.60
2018-03-02T10:12:12.922Z,62.03
2018-03-02T10:14:41.169Z,70.93
2018-03-02T10:17:09.471Z,59.20
2018-03-02T10:19:37.738Z,64.33
2018-03-02T10:22:06.017Z,59.97
2018-03-02T10:24:34.297Z,60.60
2018-03-02T10:27:02.580Z,59.10
2018-03-02T10:29:31.251Z,61.60
2018-03-02T10:31:59.522Z,65.90
2018-03-02T10:34:26.999Z,66.30
2018-03-02T10:36:55.311Z,61.63
2018-03-02T10:39:22.796Z,63.90
2018-03-02T10:41:50.297Z,62.35
2018-03-02T10:44:18.558Z,68.83
2018-03-02T10:46:46.820Z,65.53
2018-03-02T10:49:14.319Z,58.97
2018-03-02T10:51:41.840Z,57.80
2018-03-02T10:54:09.335Z,63.60
2018-03-02T10:56:36.918Z,55.33
2018-03-02T10:59:04.419Z,54.27
2018-03-02T11:01:32.694Z,67.37
2018-03-02T11:04:01.124Z,58.60
2018-03-02T11:06:28.622Z,66.17
2018-03-02T11:08:56.111Z,68.10
2018-03-02T11:11:24.363Z,60.47
2018-03-02T11:13:52.617Z,56.77
2018-03-02T11:16:20.102Z,61.57
2018-03-02T11:18:48.359Z,51.63
2018-03-02T11:21:15.843Z,57.27
2018-03-02T11:23:44.094Z,65.27
2018-03-02T11:26:11.587Z,58.20
2018-03-02T11:28:39.828Z,63.93
2018-03-02T11:31:07.319Z,60.80
2018-03-02T11:33:35.598Z,58.03
2018-03-02T11:36:03.109Z,65.23
2018-03-02T11:38:30.587Z,58.73
2018-03-02T11:40:58.081Z,64.03
2018-03-02T11:43:25.583Z,57.97
2018-03-02T11:45:53.092Z,60.70
2018-03-02T11:48:21.336Z,66.50
2018-03-02T11:50:49.591Z,61.20
2018-03-02T11:53:17.100Z,56.43
2018-03-02T11:55:44.581Z,60.00
2018-03-02T11:58:12.089Z,60.12
2018-03-02T12:00:39.570Z,63.13
2018-03-02T12:03:07.085Z,58.70
2018-03-02T12:05:34.590Z,66.87
2018-03-02T12:08:03.556Z,60.27
2018-03-02T12:10:31.810Z,69.60
2018-03-02T12:12:59.299Z,64.43
2018-03-02T12:15:27.578Z,63.90
2018-03-02T12:17:55.855Z,60.20
2018-03-02T12:20:24.114Z,58.85
2018-03-02T12:22:51.624Z,64.60
2018-03-02T12:25:19.113Z,62.80
2018-03-02T12:27:46.603Z,57.00
2018-03-02T12:30:14.872Z,60.07
2018-03-02T12:32:43.151Z,64.10
2018-03-02T12:35:11.449Z,66.53
2018-03-02T12:37:38.942Z,70.53
2018-03-02T12:40:06.461Z,63.67
2018-03-02T12:42:34.716Z,68.87
2018-03-02T12:45:02.213Z,64.63
2018-03-02T12:47:29.683Z,62.47
2018-03-02T12:49:57.191Z,55.40
2018-03-02T12:52:24.759Z,62.00
2018-03-02T12:54:53.012Z,73.27
2018-03-02T12:57:20.491Z,68.07
2018-03-02T12:59:48.751Z,59.33
2018-03-02T13:02:16.230Z,63.67
2018-03-02T13:04:44.473Z,58.83
2018-03-02T13:07:11.958Z,60.97
2018-03-02T13:09:40.222Z,59.00
2018-03-02T13:12:07.697Z,63.93
2018-03-02T13:14:36.042Z,70.20
2018-03-02T13:17:03.579Z,64.90
2018-03-02T13:19:31.055Z,67.53
2018-03-02T13:21:58.547Z,59.97
2018-03-02T13:24:26.786Z,63.23
2018-03-02T13:27:06.337Z,64.70
2018-03-02T13:29:34.592Z,61.00
2018-03-02T13:32:02.099Z,65.40
2018-03-02T13:34:42.357Z,69.90
2018-03-02T13:37:10.625Z,72.73
2018-03-02T13:39:50.036Z,61.43
2018-03-02T13:42:17.526Z,69.80
2018-03-02T13:44:45.767Z,55.25
2018-03-02T13:47:13.257Z,80.47
2018-03-02T13:50:06.169Z,69.27
2018-03-02T13:52:35.207Z,65.68
2018-03-02T13:55:03.456Z,56.20
2018-03-02T13:57:42.864Z,69.37
2018-03-02T14:00:10.346Z,59.50
2018-03-02T14:02:50.973Z,78.13
2018-03-02T14:05:18.476Z,67.70
2018-03-02T14:07:45.973Z,61.43
2018-03-02T14:10:14.202Z,76.53
2018-03-02T14:12:43.106Z,68.80
2018-03-02T14:15:10.572Z,57.70
2018-03-02T14:17:38.831Z,68.60
2018-03-02T14:20:06.316Z,67.87
2018-03-02T14:22:34.594Z,63.57
2018-03-02T14:25:02.893Z,63.65
2018-03-02T14:27:30.361Z,66.05
2018-03-02T14:29:57.851Z,65.77
2018-03-02T14:32:25.351Z,61.37
2018-03-02T14:34:53.601Z,62.27
2018-03-02T14:37:21.078Z,65.23
2018-03-02T14:39:49.354Z,73.10
2018-03-02T14:42:17.602Z,58.83
2018-03-02T14:44:45.078Z,69.70
2018-03-02T14:47:13.329Z,64.70
2018-03-02T14:49:40.827Z,66.33
2018-03-02T14:52:09.098Z,58.30
2018-03-02T14:54:37.333Z,63.80
2018-03-02T14:57:04.870Z,68.05
2018-03-02T14:59:32.372Z,63.90
2018-03-02T15:01:59.863Z,65.10
2018-03-02T15:04:27.362Z,68.53
2018-03-02T15:06:54.854Z,61.00
2018-03-02T15:09:22.394Z,57.75
2018-03-02T15:11:49.877Z,65.63
2018-03-02T15:14:18.140Z,70.40
2018-03-02T15:16:46.409Z,64.70
2018-03-02T15:19:13.940Z,68.80
2018-03-02T15:21:41.455Z,60.70
2018-03-02T15:24:10.991Z,60.03
2018-03-02T15:26:39.009Z,69.28
2018-03-02T15:29:06.510Z,67.33
2018-03-02T15:31:34.011Z,74.53
2018-03-02T15:34:01.508Z,63.13
2018-03-02T15:36:29.768Z,68.00
2018-03-02T15:38:58.038Z,76.50
2018-03-02T15:41:26.291Z,63.00
2018-03-02T15:43:53.803Z,71.30
2018-03-02T15:46:21.308Z,69.67
2018-03-02T15:48:48.794Z,63.30
2018-03-02T15:51:17.248Z,69.32
2018-03-02T15:53:44.752Z,71.63
2018-03-02T15:56:13.006Z,66.20
2018-03-02T15:58:42.006Z,72.13
2018-03-02T16:01:10.248Z,72.93
2018-03-02T16:03:37.744Z,73.18
2018-03-02T16:06:05.996Z,67.00
2018-03-02T16:08:33.493Z,72.17
2018-03-02T16:11:01.747Z,66.83
2018-03-02T16:13:30.012Z,66.20
2018-03-02T16:15:57.512Z,81.70
2018-03-02T16:18:25.006Z,75.57
2018-03-02T16:20:52.505Z,77.40
2018-03-02T16:23:20.753Z,73.90
2018-03-02T16:25:48.259Z,66.28
2018-03-02T16:28:15.759Z,71.27
2018-03-02T16:30:43.277Z,66.70
2018-03-02T16:33:10.782Z,71.50
2018-03-02T16:35:41.658Z,70.93
2018-03-02T16:38:09.916Z,70.70
2018-03-02T16:40:37.426Z,74.00
2018-03-02T16:43:04.922Z,78.77
2018-03-02T16:45:33.195Z,71.10
2018-03-02T16:48:00.675Z,71.63
2018-03-02T16:50:28.941Z,74.17
2018-03-02T16:53:00.887Z,78.10
2018-03-02T16:55:28.385Z,79.30
2018-03-02T16:57:55.920Z,78.00
2018-03-02T17:00:23.411Z,80.07
2018-03-02T17:02:50.891Z,81.57
2018-03-02T17:05:18.569Z,76.30
2018-03-02T17:07:46.062Z,75.40
2018-03-02T17:10:14.339Z,77.53
2018-03-02T17:12:42.604Z,81.87
2018-03-02T17:15:10.096Z,71.17
2018-03-02T17:17:37.591Z,81.73
2018-03-02T17:20:05.323Z,82.57
2018-03-02T17:22:32.817Z,98.03
2018-03-02T17:25:00.308Z,87.33
2018-03-02T17:27:28.562Z,88.80
2018-03-02T17:29:56.049Z,96.57
2018-03-02T17:32:24.307Z,95.40
2018-03-02T17:34:51.793Z,91.20
2018-03-02T17:37:20.072Z,88.83
2018-03-02T17:39:48.365Z,93.00
2018-03-02T17:42:16.615Z,87.60
2018-03-02T17:44:44.863Z,105.40
2018-03-02T17:47:12.373Z,104.53
2018-03-02T17:49:39.872Z,106.67
2018-03-02T17:52:07.366Z,90.53
2018-03-02T17:54:35.606Z,90.27
2018-03-02T17:57:03.194Z,93.40
2018-03-02T17:59:31.448Z,90.13
2018-03-02T18:01:58.943Z,97.80
2018-03-02T18:04:26.443Z,104.93
2018-03-02T18:06:53.938Z,94.90
2018-03-02T18:09:21.425Z,97.60
2018-03-02T18:11:48.934Z,90.80
2018-03-02T18:14:16.435Z,93.12
2018-03-02T18:16:44.795Z,106.23
2018-03-02T18:19:13.061Z,97.80
2018-03-02T18:21:40.576Z,96.23
2018-03-02T18:24:08.066Z,103.33
2018-03-02T18:26:35.574Z,127.17
2018-03-02T18:29:03.055Z,122.63
2018-03-02T18:31:30.572Z,103.83
2018-03-02T18:33:58.852Z,103.30
2018-03-02T18:36:27.129Z,105.17
2018-03-02T18:38:54.635Z,110.23
2018-03-02T18:41:22.141Z,108.77
2018-03-02T18:43:50.405Z,105.93
2018-03-02T18:46:18.692Z,101.30
2018-03-02T18:48:46.973Z,99.27
2018-03-02T18:51:14.535Z,102.20
2018-03-02T18:53:42.052Z,95.50
2018-03-02T18:56:09.645Z,112.40
2018-03-02T18:58:37.902Z,99.60
2018-03-02T19:01:06.176Z,113.67
2018-03-02T19:03:33.695Z,118.27
2018-03-02T19:06:02.231Z,104.23
2018-03-02T19:08:30.006Z,116.40
2018-03-02T19:10:58.274Z,110.83
2018-03-02T19:13:26.582Z,121.73
2018-03-02T19:15:54.121Z,118.80
2018-03-02T19:18:22.402Z,117.93
2018-03-02T19:20:57.169Z,119.67
2018-03-02T19:23:24.663Z,111.33
2018-03-02T19:25:52.916Z,120.65
2018-03-02T19:28:20.421Z,129.70
2018-03-02T19:30:47.934Z,122.97
2018-03-02T19:33:15.495Z,125.93
2018-03-02T19:35:44.005Z,115.83
2018-03-02T19:38:12.253Z,124.83
2018-03-02T19:40:39.784Z,123.57
2018-03-02T19:43:07.300Z,113.70
2018-03-02T19:45:35.577Z,120.97
2018-03-02T19:48:03.855Z,121.30
2018-03-02T19:50:32.122Z,121.60
2018-03-02T19:52:59.653Z,129.00
2018-03-02T19:55:27.144Z,126.70
2018-03-02T19:57:55.428Z,109.90
2018-03-02T20:00:23.695Z,106.47
2018-03-02T20:02:51.964Z,106.23
2018-03-02T20:05:19.445Z,104.27
2018-03-02T20:07:47.725Z,110.13
2018-03-02T20:10:15.232Z,115.10
2018-03-02T20:12:42.721Z,115.63
2018-03-02T20:15:10.978Z,110.12
2018-03-02T20:17:38.470Z,103.40
2018-03-02T20:20:05.989Z,117.27
2018-03-02T20:22:33.490Z,117.87
2018-03-02T20:25:01.005Z,121.13
2018-03-02T20:27:28.495Z,110.80
2018-03-02T20:29:56.760Z,114.20
2018-03-02T20:32:24.253Z,109.00
2018-03-02T20:34:51.775Z,121.23
2018-03-02T20:37:20.032Z,126.53
2018-03-02T20:39:47.531Z,123.90
2018-03-02T20:42:15.023Z,114.97
2018-03-02T20:44:42.527Z,151.90
2018-03-02T20:47:10.778Z,134.50
2018-03-02T20:49:38.275Z,134.00
2018-03-02T20:52:06.538Z,116.00
2018-03-02T20:54:34.810Z,116.80
2018-03-02T20:57:03.075Z,131.80
2018-03-02T20:59:30.574Z,110.83
2018-03-02T21:01:59.202Z,116.40
2018-03-02T21:04:26.711Z,130.40
2018-03-02T21:06:54.243Z,120.97
2018-03-02T21:09:22.514Z,117.27
2018-03-02T21:11:50.016Z,117.83
2018-03-02T21:14:25.485Z,118.03
2018-03-02T21:16:52.991Z,116.00
2018-03-02T21:19:21.402Z,123.87
2018-03-02T21:21:48.941Z,119.13
2018-03-02T21:24:17.219Z,127.37
2018-03-02T21:26:45.476Z,124.00
2018-03-02T21:29:12.995Z,116.00
2018-03-02T21:31:40.481Z,118.83
2018-03-02T21:34:07.983Z,123.13
2018-03-02T21:36:35.482Z,121.20
2018-03-02T21:39:02.968Z,119.33
2018-03-02T21:41:31.230Z,119.13
2018-03-02T21:43:58.716Z,124.17
2018-03-02T21:46:26.988Z,130.43
2018-03-02T21:48:55.252Z,113.80
2018-03-02T21:51:23.529Z,118.97
2018-03-02T21:53:51.023Z,116.67
2018-03-02T21:56:18.520Z,129.20
2018-03-02T21:58:46.032Z,118.70
2018-03-02T22:01:13.547Z,127.13
2018-03-02T22:03:41.041Z,133.47
2018-03-02T22:06:08.562Z,131.77
2018-03-02T22:08:36.042Z,144.43
2018-03-02T22:11:04.313Z,134.57
2018-03-02T22:13:32.586Z,132.40
2018-03-02T22:16:00.069Z,130.80
2018-03-02T22:18:27.567Z,125.87
2018-03-02T22:20:55.078Z,129.90
2018-03-02T22:23:23.353Z,127.20
2018-03-02T22:25:51.629Z,135.15
2018-03-02T22:28:19.879Z,134.43
2018-03-02T22:30:47.388Z,144.27
2018-03-02T22:33:15.644Z,144.50
2018-03-02T22:35:43.910Z,128.40
2018-03-02T22:38:12.178Z,124.87
2018-03-02T22:40:40.455Z,131.73
2018-03-02T22:43:08.764Z,126.97
2018-03-02T22:45:36.302Z,136.37
2018-03-02T22:48:03.830Z,145.65
2018-03-02T22:50:31.345Z,141.83
2018-03-02T22:52:58.837Z,138.70
2018-03-02T22:55:26.331Z,127.83
2018-03-02T22:57:54.614Z,135.33
2018-03-02T23:00:22.864Z,138.57
2018-03-02T23:02:51.133Z,141.97
2018-03-02T23:05:18.914Z,135.90
2018-03-02T23:07:46.436Z,129.97
2018-03-02T23:10:13.936Z,131.83
2018-03-02T23:12:41.443Z,131.40
2018-03-02T23:15:08.936Z,138.00
2018-03-02T23:17:36.448Z,128.00
2018-03-02T23:20:03.934Z,125.97
2018-03-02T23:22:31.438Z,137.93
2018-03-02T23:24:59.689Z,143.60
2018-03-02T23:27:27.962Z,130.50
2018-03-02T23:29:55.453Z,132.70
2018-03-02T23:32:22.978Z,139.67
2018-03-02T23:34:50.468Z,138.17
2018-03-02T23:37:18.743Z,138.37
2018-03-02T23:39:46.999Z,129.90
2018-03-02T23:42:15.484Z,131.17
2018-03-02T23:44:43.731Z,127.83
2018-03-02T23:47:11.328Z,121.73
2018-03-02T23:49:39.580Z,125.33
2018-03-02T23:52:08.587Z,133.50
2018-03-02T23:54:36.839Z,133.87
2018-03-02T23:57:04.349Z,132.07
2018-03-02T23:59:31.845Z,136.70
